createdAt,value
2023-04-12T00:00:05.796Z,19.70
2023-04-12T00:01:05.809Z,19.60
2023-04-12T00:02:05.947Z,19.60
2023-04-12T00:03:06.073Z,19.65
2023-04-12T00:04:06.125Z,19.67
2023-04-12T00:05:06.160Z,19.63
2023-04-12T00:06:06.176Z,19.65
2023-04-12T00:07:06.267Z,19.66
2023-04-12T00:08:06.282Z,19.66
2023-04-12T00:09:06.339Z,19.66
2023-04-12T00:10:06.369Z,19.61
2023-04-12T00:11:06.451Z,19.63
2023-04-12T00:12:06.519Z,19.61
2023-04-12T00:13:06.582Z,19.64
2023-04-12T00:14:06.648Z,19.66
2023-04-12T00:15:08.127Z,19.65
2023-04-12T00:16:06.809Z,19.63
2023-04-12T00:17:06.857Z,19.66
2023-04-12T00:18:06.939Z,19.71
2023-04-12T00:19:07.005Z,19.65
2023-04-12T00:20:07.068Z,19.57
2023-04-12T00:21:07.129Z,19.62
2023-04-12T00:22:07.210Z,19.66
2023-04-12T00:23:07.251Z,19.66
2023-04-12T00:24:07.294Z,19.62
2023-04-12T00:25:07.398Z,19.62
2023-04-12T00:26:07.438Z,19.60
2023-04-12T00:27:07.512Z,19.57
2023-04-12T00:28:07.577Z,19.57
2023-04-12T00:29:07.631Z,19.63
2023-04-12T00:30:07.741Z,19.65
2023-04-12T00:31:07.853Z,19.60
2023-04-12T00:32:07.841Z,19.63
2023-04-12T00:33:07.898Z,19.66
2023-04-12T00:34:07.961Z,19.66
2023-04-12T00:35:08.060Z,19.60
2023-04-12T00:36:08.128Z,19.63
2023-04-12T00:37:08.162Z,19.65
2023-04-12T00:38:08.219Z,19.60
2023-04-12T00:39:08.281Z,19.62
2023-04-12T00:40:08.376Z,19.63
2023-04-12T00:41:08.424Z,19.66
2023-04-12T00:42:08.499Z,19.63
2023-04-12T00:43:08.563Z,19.60
2023-04-12T00:44:08.632Z,19.68
2023-04-12T00:45:08.707Z,19.60
2023-04-12T00:46:08.803Z,19.62
2023-04-12T00:47:08.978Z,19.63
2023-04-12T00:48:08.897Z,19.65
2023-04-12T00:49:08.982Z,19.69
2023-04-12T00:50:09.022Z,19.60
2023-04-12T00:51:09.056Z,19.68
2023-04-12T00:52:09.115Z,19.55
2023-04-12T00:53:09.184Z,19.65
2023-04-12T00:54:09.262Z,19.63
2023-04-12T00:55:09.292Z,19.65
2023-04-12T00:56:09.369Z,19.62
2023-04-12T00:57:09.411Z,19.62
2023-04-12T00:58:09.467Z,19.62
2023-04-12T00:59:09.561Z,19.63
2023-04-12T01:00:09.604Z,19.60
2023-04-12T01:01:09.687Z,19.62
2023-04-12T01:02:09.769Z,19.57
2023-04-12T01:03:09.798Z,19.62
2023-04-12T01:04:09.784Z,19.62
2023-04-12T01:05:09.751Z,19.61
2023-04-12T01:06:09.801Z,19.58
2023-04-12T01:07:09.819Z,19.67
2023-04-12T01:08:09.881Z,19.63
2023-04-12T01:09:09.938Z,19.64
2023-04-12T01:10:10.022Z,19.65
2023-04-12T01:11:10.133Z,19.66
2023-04-12T01:12:10.120Z,19.60
2023-04-12T01:13:10.171Z,19.58
2023-04-12T01:14:10.248Z,19.58
2023-04-12T01:15:10.251Z,19.60
2023-04-12T01:16:10.258Z,19.60
2023-04-12T01:17:10.250Z,19.57
2023-04-12T01:18:10.250Z,19.63
2023-04-12T01:19:10.283Z,19.62
2023-04-12T01:20:10.250Z,19.60
2023-04-12T01:21:10.252Z,19.60
2023-04-12T01:22:10.265Z,19.65
2023-04-12T01:23:10.309Z,19.62
2023-04-12T01:24:10.391Z,19.62
2023-04-12T01:25:10.446Z,19.57
2023-04-12T01:26:10.591Z,19.63
2023-04-12T01:27:10.576Z,19.58
2023-04-12T01:28:10.641Z,19.62
2023-04-12T01:29:10.712Z,19.64
2023-04-12T01:30:10.784Z,19.57
2023-04-12T01:31:10.834Z,19.61
2023-04-12T01:32:10.878Z,19.58
2023-04-12T01:33:10.947Z,19.63
2023-04-12T01:34:11.019Z,19.62
2023-04-12T01:35:11.139Z,19.60
2023-04-12T01:36:11.258Z,19.60
2023-04-12T01:37:11.204Z,19.60
2023-04-12T01:38:11.268Z,19.65
2023-04-12T01:39:11.496Z,19.66
2023-04-12T01:40:11.411Z,19.64
2023-04-12T01:41:11.514Z,19.63
2023-04-12T01:42:11.495Z,19.61
2023-04-12T01:43:11.624Z,19.57
2023-04-12T01:44:11.605Z,19.62
2023-04-12T01:45:11.662Z,19.58
2023-04-12T01:46:11.783Z,19.63
2023-04-12T01:47:11.742Z,19.58
2023-04-12T01:48:11.818Z,19.66
2023-04-12T01:49:11.852Z,19.58
2023-04-12T01:50:11.914Z,19.61
2023-04-12T01:51:11.941Z,19.63
2023-04-12T01:52:11.989Z,19.63
2023-04-12T01:53:12.049Z,19.54
2023-04-12T01:54:12.115Z,19.61
2023-04-12T01:55:12.176Z,19.61
2023-04-12T01:56:12.249Z,19.66
2023-04-12T01:57:12.300Z,19.61
2023-04-12T01:58:12.363Z,19.63
2023-04-12T01:59:12.403Z,19.58
2023-04-12T02:00:12.474Z,19.60
2023-04-12T02:01:12.566Z,19.62
2023-04-12T02:02:12.706Z,19.61
2023-04-12T02:03:12.881Z,19.61
2023-04-12T02:04:12.799Z,19.65
2023-04-12T02:05:12.781Z,19.63
2023-04-12T02:06:12.867Z,19.61
2023-04-12T02:07:12.933Z,19.61
2023-04-12T02:08:12.939Z,19.60
2023-04-12T02:09:12.913Z,19.58
2023-04-12T02:10:12.891Z,19.61
2023-04-12T02:11:12.903Z,19.63
2023-04-12T02:12:12.886Z,19.65
2023-04-12T02:13:12.880Z,19.64
2023-04-12T02:14:12.884Z,19.68
2023-04-12T02:15:12.902Z,19.66
2023-04-12T02:16:12.920Z,19.68
2023-04-12T02:17:12.901Z,19.62
2023-04-12T02:18:12.934Z,19.65
2023-04-12T02:19:12.897Z,19.65
2023-04-12T02:20:12.874Z,19.61
2023-04-12T02:21:12.861Z,19.60
2023-04-12T02:22:12.889Z,19.60
2023-04-12T02:23:12.849Z,19.58
2023-04-12T02:24:12.873Z,19.65
2023-04-12T02:25:12.939Z,19.60
2023-04-12T02:26:13.006Z,19.60
2023-04-12T02:27:13.082Z,19.63
2023-04-12T02:28:13.139Z,19.65
2023-04-12T02:29:13.112Z,19.60
2023-04-12T02:30:13.113Z,19.66
2023-04-12T02:31:13.159Z,19.61
2023-04-12T02:32:13.100Z,19.60
2023-04-12T02:33:13.131Z,19.64
2023-04-12T02:34:13.185Z,19.61
2023-04-12T02:35:13.124Z,19.68
2023-04-12T02:36:13.154Z,19.55
2023-04-12T02:37:13.215Z,19.52
2023-04-12T02:38:13.261Z,19.57
2023-04-12T02:39:13.325Z,19.57
2023-04-12T02:40:13.376Z,19.38
2023-04-12T02:41:13.398Z,19.47
2023-04-12T02:42:13.437Z,19.47
2023-04-12T02:43:13.465Z,19.45
2023-04-12T02:44:13.431Z,19.60
2023-04-12T02:45:13.439Z,19.55
2023-04-12T02:46:13.479Z,19.52
2023-04-12T02:47:13.452Z,19.54
2023-04-12T02:48:13.481Z,19.53
2023-04-12T02:49:13.491Z,19.46
2023-04-12T02:50:13.512Z,19.43
2023-04-12T02:51:13.539Z,19.47
2023-04-12T02:52:13.573Z,19.49
2023-04-12T02:53:13.611Z,19.51
2023-04-12T02:54:13.634Z,19.52
2023-04-12T02:55:13.666Z,19.42
2023-04-12T02:56:13.695Z,19.48
2023-04-12T02:57:13.729Z,19.48
2023-04-12T02:58:13.765Z,19.50
2023-04-12T02:59:13.811Z,19.50
2023-04-12T03:00:13.868Z,19.45
2023-04-12T03:01:13.894Z,19.30
2023-04-12T03:02:13.979Z,19.35
2023-04-12T03:03:14.102Z,19.32
2023-04-12T03:04:13.947Z,19.32
2023-04-12T03:05:13.982Z,19.43
2023-04-12T03:06:13.925Z,19.36
2023-04-12T03:07:13.928Z,19.38
2023-04-12T03:08:13.939Z,19.42
2023-04-12T03:09:13.932Z,19.27
2023-04-12T03:10:13.960Z,19.31
2023-04-12T03:11:13.935Z,19.33
2023-04-12T03:12:13.974Z,19.25
2023-04-12T03:13:13.958Z,19.23
2023-04-12T03:14:13.971Z,19.31
2023-04-12T03:15:13.951Z,19.26
2023-04-12T03:16:13.998Z,19.21
2023-04-12T03:17:13.963Z,19.27
2023-04-12T03:18:14.018Z,19.24
2023-04-12T03:19:14.039Z,19.20
2023-04-12T03:20:14.082Z,19.15
2023-04-12T03:21:14.150Z,19.21
2023-04-12T03:22:14.185Z,19.21
2023-04-12T03:23:14.220Z,19.23
2023-04-12T03:24:14.299Z,19.21
2023-04-12T03:25:14.318Z,19.18
2023-04-12T03:26:14.368Z,19.20
2023-04-12T03:27:14.425Z,19.18
2023-04-12T03:28:14.503Z,19.13
2023-04-12T03:29:14.527Z,19.21
2023-04-12T03:30:14.606Z,19.13
2023-04-12T03:31:14.699Z,19.27
2023-04-12T03:32:14.703Z,19.13
2023-04-12T03:33:14.751Z,19.21
2023-04-12T03:34:14.808Z,19.09
2023-04-12T03:35:14.890Z,19.09
2023-04-12T03:36:14.918Z,19.18
2023-04-12T03:37:14.999Z,19.16
2023-04-12T03:38:15.041Z,19.09
2023-04-12T03:39:15.093Z,19.13
2023-04-12T03:40:15.159Z,19.11
2023-04-12T03:41:15.233Z,19.16
2023-04-12T03:42:29.531Z,19.07
2023-04-12T03:43:16.287Z,19.13
2023-04-12T03:44:15.291Z,19.19
2023-04-12T03:45:15.299Z,19.03
2023-04-12T03:46:15.322Z,19.03
2023-04-12T03:47:15.311Z,19.12
2023-04-12T03:48:15.296Z,19.08
2023-04-12T03:49:15.312Z,19.13
2023-04-12T03:50:15.312Z,19.14
2023-04-12T03:51:15.316Z,19.22
2023-04-12T03:52:15.386Z,19.03
2023-04-12T03:53:15.366Z,19.09
2023-04-12T03:54:15.386Z,19.09
2023-04-12T03:55:15.435Z,19.06
2023-04-12T03:56:15.497Z,19.06
2023-04-12T03:57:15.599Z,18.95
2023-04-12T03:58:15.609Z,19.09
2023-04-12T03:59:15.670Z,19.03
2023-04-12T04:00:15.740Z,19.01
2023-04-12T04:01:15.820Z,19.06
2023-04-12T04:02:15.921Z,19.03
2023-04-12T04:03:16.011Z,19.09
2023-04-12T04:04:16.164Z,19.09
2023-04-12T04:05:16.122Z,19.06
2023-04-12T04:06:16.137Z,19.03
2023-04-12T04:07:16.202Z,19.04
2023-04-12T04:08:16.264Z,19.03
2023-04-12T04:09:16.337Z,19.06
2023-04-12T04:10:16.411Z,19.09
2023-04-12T04:11:16.476Z,18.99
2023-04-12T04:12:16.599Z,19.01
2023-04-12T04:13:16.613Z,19.13
2023-04-12T04:14:16.696Z,19.09
2023-04-12T04:15:16.758Z,19.22
2023-04-12T04:16:16.865Z,19.10
2023-04-12T04:17:16.894Z,19.12
2023-04-12T04:18:16.942Z,18.98
2023-04-12T04:19:17.006Z,19.00
2023-04-12T04:20:17.070Z,18.97
2023-04-12T04:21:17.143Z,18.94
2023-04-12T04:22:17.189Z,18.91
2023-04-12T04:23:17.248Z,18.88
2023-04-12T04:24:17.238Z,18.79
2023-04-12T04:25:17.268Z,18.87
2023-04-12T04:26:17.257Z,18.85
2023-04-12T04:27:17.254Z,18.79
2023-04-12T04:28:17.282Z,18.78
2023-04-12T04:29:17.265Z,18.76
2023-04-12T04:30:17.264Z,18.42
2023-04-12T04:31:17.310Z,18.44
2023-04-12T04:32:17.283Z,18.48
2023-04-12T04:33:17.280Z,18.49
2023-04-12T04:34:17.322Z,18.46
2023-04-12T04:35:17.360Z,18.57
2023-04-12T04:36:17.302Z,18.59
2023-04-12T04:37:17.438Z,18.65
2023-04-12T04:38:17.447Z,18.77
2023-04-12T04:39:17.523Z,18.77
2023-04-12T04:40:17.568Z,18.82
2023-04-12T04:41:17.647Z,18.88
2023-04-12T04:42:17.650Z,18.95
2023-04-12T04:43:17.644Z,19.00
2023-04-12T04:44:17.656Z,18.95
2023-04-12T04:45:17.660Z,18.94
2023-04-12T04:46:17.713Z,18.92
2023-04-12T04:47:17.673Z,18.91
2023-04-12T04:48:17.670Z,18.96
2023-04-12T04:49:17.688Z,18.99
2023-04-12T04:50:17.692Z,18.93
2023-04-12T04:51:17.705Z,18.94
2023-04-12T04:52:17.708Z,18.94
2023-04-12T04:53:17.715Z,18.96
2023-04-12T04:54:17.711Z,18.88
2023-04-12T04:55:17.711Z,18.97
2023-04-12T04:56:17.723Z,18.98
2023-04-12T04:57:17.716Z,19.08
2023-04-12T04:58:17.732Z,19.06
2023-04-12T04:59:17.777Z,19.11
2023-04-12T05:00:17.729Z,19.04
2023-04-12T05:01:17.868Z,18.98
2023-04-12T05:02:17.764Z,19.03
2023-04-12T05:03:17.801Z,18.97
2023-04-12T05:04:17.918Z,18.99
2023-04-12T05:05:17.747Z,18.97
2023-04-12T05:06:17.764Z,18.95
2023-04-12T05:07:17.745Z,18.98
2023-04-12T05:08:17.748Z,19.01
2023-04-12T05:09:17.753Z,18.93
2023-04-12T05:10:17.742Z,19.02
2023-04-12T05:11:17.768Z,18.98
2023-04-12T05:12:17.733Z,19.03
2023-04-12T05:13:17.731Z,19.07
2023-04-12T05:14:17.717Z,19.02
2023-04-12T05:15:17.748Z,19.08
2023-04-12T05:16:17.791Z,19.05
2023-04-12T05:17:17.715Z,19.02
2023-04-12T05:18:17.716Z,19.03
2023-04-12T05:19:17.729Z,19.00
2023-04-12T05:20:17.744Z,19.00
2023-04-12T05:21:17.720Z,19.00
2023-04-12T05:22:17.696Z,19.04
2023-04-12T05:23:17.725Z,19.05
2023-04-12T05:24:17.687Z,19.04
2023-04-12T05:25:17.706Z,19.04
2023-04-12T05:26:17.722Z,19.07
2023-04-12T05:27:17.727Z,18.99
2023-04-12T05:28:17.702Z,18.94
2023-04-12T05:29:17.703Z,18.91
2023-04-12T05:30:17.698Z,18.88
2023-04-12T05:31:17.759Z,18.83
2023-04-12T05:32:17.768Z,18.86
2023-04-12T05:33:17.773Z,18.91
2023-04-12T05:34:17.863Z,19.01
2023-04-12T05:35:17.760Z,18.90
2023-04-12T05:36:17.710Z,18.94
2023-04-12T05:37:17.700Z,18.99
2023-04-12T05:38:17.690Z,18.95
2023-04-12T05:39:20.030Z,18.96
2023-04-12T05:40:17.685Z,18.99
2023-04-12T05:41:17.729Z,18.94
2023-04-12T05:42:17.678Z,18.99
2023-04-12T05:43:17.731Z,18.96
2023-04-12T05:44:17.738Z,18.95
2023-04-12T05:45:17.682Z,18.93
2023-04-12T05:46:17.707Z,18.91
2023-04-12T05:47:17.757Z,19.01
2023-04-12T05:48:17.759Z,18.90
2023-04-12T05:49:17.675Z,18.96
2023-04-12T05:50:17.700Z,18.95
2023-04-12T05:51:22.905Z,18.98
2023-04-12T05:52:19.273Z,19.06
2023-04-12T05:53:17.809Z,18.95
2023-04-12T05:54:17.708Z,18.99
2023-04-12T05:55:17.737Z,18.93
2023-04-12T05:56:17.692Z,18.95
2023-04-12T05:57:17.714Z,18.98
2023-04-12T05:58:18.290Z,18.95
2023-04-12T05:59:17.720Z,18.92
2023-04-12T06:00:17.674Z,18.99
2023-04-12T06:01:17.679Z,18.95
2023-04-12T06:02:17.711Z,18.99
2023-04-12T06:03:17.704Z,19.01
2023-04-12T06:04:17.712Z,18.98
2023-04-12T06:05:17.701Z,18.95
2023-04-12T06:06:17.717Z,18.93
2023-04-12T06:07:17.677Z,19.00
2023-04-12T06:08:17.630Z,18.92
2023-04-12T06:09:17.621Z,18.95
2023-04-12T06:10:18.114Z,18.93
2023-04-12T06:11:17.688Z,18.98
2023-04-12T06:12:17.640Z,18.93
2023-04-12T06:13:17.793Z,18.93
2023-04-12T06:14:17.596Z,18.97
2023-04-12T06:15:17.633Z,18.97
2023-04-12T06:16:17.652Z,18.95
2023-04-12T06:17:18.279Z,18.95
2023-04-12T06:18:17.616Z,19.00
2023-04-12T06:19:17.631Z,18.95
2023-04-12T06:20:17.588Z,18.98
2023-04-12T06:21:17.603Z,18.92
2023-04-12T06:22:17.587Z,18.92
2023-04-12T06:23:17.577Z,18.92
2023-04-12T06:24:17.553Z,18.89
2023-04-12T06:25:17.594Z,18.95
2023-04-12T06:26:18.510Z,18.98
2023-04-12T06:27:17.548Z,18.87
2023-04-12T06:28:17.837Z,18.89
2023-04-12T06:29:17.560Z,18.89
2023-04-12T06:30:17.560Z,18.86
2023-04-12T06:31:17.568Z,18.92
2023-04-12T06:32:17.559Z,18.89
2023-04-12T06:33:17.602Z,18.89
2023-04-12T06:34:17.549Z,18.89
2023-04-12T06:35:17.572Z,18.91
2023-04-12T06:36:17.585Z,18.84
2023-04-12T06:37:17.609Z,18.83
2023-04-12T06:38:17.571Z,18.89
2023-04-12T06:39:17.524Z,18.87
2023-04-12T06:40:17.557Z,18.87
2023-04-12T06:41:19.304Z,18.89
2023-04-12T06:42:17.608Z,18.83
2023-04-12T06:43:17.529Z,18.86
2023-04-12T06:44:17.492Z,18.90
2023-04-12T06:45:17.484Z,18.89
2023-04-12T06:46:17.543Z,18.87
2023-04-12T06:47:17.554Z,18.89
2023-04-12T06:48:17.467Z,18.91
2023-04-12T06:49:17.464Z,19.04
2023-04-12T06:50:18.300Z,18.98
2023-04-12T06:51:17.436Z,18.94
2023-04-12T06:52:17.457Z,18.96
2023-04-12T06:53:17.500Z,18.96
2023-04-12T06:54:17.463Z,18.95
2023-04-12T06:55:17.474Z,18.98
2023-04-12T06:56:18.720Z,18.98
2023-04-12T06:57:17.416Z,19.06
2023-04-12T06:58:17.448Z,19.13
2023-04-12T06:59:17.545Z,19.16
2023-04-12T07:00:17.670Z,19.26
2023-04-12T07:01:17.809Z,19.23
2023-04-12T07:02:17.730Z,19.36
2023-04-12T07:03:17.954Z,19.40
2023-04-12T07:04:17.984Z,19.42
2023-04-12T07:05:17.914Z,19.53
2023-04-12T07:06:25.080Z,19.52
2023-04-12T07:07:18.976Z,19.54
2023-04-12T07:08:17.955Z,19.54
2023-04-12T07:09:18.391Z,19.63
2023-04-12T07:10:17.950Z,19.70
2023-04-12T07:11:21.524Z,19.73
2023-04-12T07:12:17.950Z,19.79
2023-04-12T07:13:17.928Z,19.75
2023-04-12T07:14:17.956Z,19.86
2023-04-12T07:15:17.903Z,19.85
2023-04-12T07:16:17.979Z,19.91
2023-04-12T07:17:17.874Z,19.94
2023-04-12T07:18:17.865Z,19.83
2023-04-12T07:19:17.877Z,19.96
2023-04-12T07:20:17.861Z,19.95
2023-04-12T07:21:17.987Z,19.96
2023-04-12T07:22:17.894Z,20.08
2023-04-12T07:23:17.851Z,20.10
2023-04-12T07:24:17.817Z,20.11
2023-04-12T07:25:17.940Z,20.16
2023-04-12T07:26:17.971Z,20.11
2023-04-12T07:27:17.933Z,20.07
2023-04-12T07:28:17.952Z,19.92
2023-04-12T07:29:18.818Z,20.05
2023-04-12T07:30:18.037Z,19.97
2023-04-12T07:31:18.097Z,20.14
2023-04-12T07:32:18.122Z,20.25
2023-04-12T07:33:19.960Z,20.20
2023-04-12T07:34:18.213Z,20.20
2023-04-12T07:35:18.217Z,20.12
2023-04-12T07:36:18.189Z,20.09
2023-04-12T07:37:18.106Z,20.06
2023-04-12T07:38:18.138Z,20.00
2023-04-12T07:39:18.165Z,19.95
2023-04-12T07:40:18.063Z,19.90
2023-04-12T07:41:18.059Z,19.95
2023-04-12T07:42:18.053Z,19.95
2023-04-12T07:43:18.028Z,19.87
2023-04-12T07:44:18.030Z,19.83
2023-04-12T07:45:17.997Z,19.78
2023-04-12T07:46:17.970Z,19.78
2023-04-12T07:47:17.928Z,19.75
2023-04-12T07:48:17.939Z,19.67
2023-04-12T07:49:17.923Z,19.62
2023-04-12T07:50:17.892Z,19.57
2023-04-12T07:51:18.028Z,19.61
2023-04-12T07:52:17.856Z,19.57
2023-04-12T07:53:17.840Z,19.59
2023-04-12T07:54:17.811Z,19.45
2023-04-12T07:55:17.770Z,19.40
2023-04-12T07:56:17.773Z,19.46
2023-04-12T07:57:17.786Z,19.45
2023-04-12T07:58:17.708Z,19.43
2023-04-12T07:59:17.680Z,19.35
2023-04-12T08:00:17.648Z,19.34
2023-04-12T08:01:17.680Z,19.35
2023-04-12T08:02:17.707Z,19.40
2023-04-12T08:03:17.743Z,19.46
2023-04-12T08:04:17.969Z,19.38
2023-04-12T08:05:17.691Z,19.36
2023-04-12T08:06:17.766Z,19.43
2023-04-12T08:07:17.698Z,19.40
2023-04-12T08:08:17.744Z,19.36
2023-04-12T08:09:18.361Z,19.35
2023-04-12T08:10:17.850Z,19.43
2023-04-12T08:11:17.798Z,19.36
2023-04-12T08:12:17.769Z,19.35
2023-04-12T08:13:17.733Z,19.35
2023-04-12T08:14:17.740Z,19.35
2023-04-12T08:15:17.720Z,19.28
2023-04-12T08:16:17.847Z,19.35
2023-04-12T08:17:17.675Z,19.27
2023-04-12T08:18:17.677Z,19.32
2023-04-12T08:19:17.983Z,19.33
2023-04-12T08:20:17.612Z,19.27
2023-04-12T08:21:17.610Z,19.28
2023-04-12T08:22:17.591Z,19.25
2023-04-12T08:23:17.686Z,19.28
2023-04-12T08:24:17.584Z,19.27
2023-04-12T08:25:17.552Z,19.20
2023-04-12T08:26:17.584Z,19.23
2023-04-12T08:27:17.619Z,19.25
2023-04-12T08:28:17.694Z,19.20
2023-04-12T08:29:17.692Z,19.21
2023-04-12T08:30:18.337Z,19.14
2023-04-12T08:31:17.843Z,19.15
2023-04-12T08:32:17.806Z,19.19
2023-04-12T08:33:17.801Z,19.14
2023-04-12T08:34:17.832Z,19.18
2023-04-12T08:35:17.900Z,19.15
2023-04-12T08:36:17.908Z,19.10
2023-04-12T08:37:17.954Z,19.10
2023-04-12T08:38:17.880Z,19.17
2023-04-12T08:39:18.007Z,19.21
2023-04-12T08:40:18.830Z,19.15
2023-04-12T08:41:17.913Z,19.12
2023-04-12T08:42:17.884Z,19.12
2023-04-12T08:43:17.838Z,19.15
2023-04-12T08:44:17.780Z,19.10
2023-04-12T08:45:17.800Z,19.14
2023-04-12T08:46:17.870Z,19.05
2023-04-12T08:47:17.788Z,19.09
2023-04-12T08:48:17.854Z,19.14
2023-04-12T08:49:17.752Z,19.13
2023-04-12T08:50:17.807Z,18.77
2023-04-12T08:51:17.697Z,19.34
2023-04-12T08:52:18.412Z,19.76
2023-04-12T08:53:17.662Z,19.49
2023-04-12T08:54:17.891Z,19.80
2023-04-12T08:55:17.862Z,20.03
2023-04-12T08:56:17.641Z,20.01
2023-04-12T08:57:17.634Z,20.03
2023-04-12T08:58:17.662Z,20.05
2023-04-12T08:59:17.701Z,20.25
2023-04-12T09:00:17.676Z,20.14
2023-04-12T09:01:17.669Z,20.13
2023-04-12T09:02:17.814Z,20.07
2023-04-12T09:03:18.224Z,20.17
2023-04-12T09:04:17.834Z,20.06
2023-04-12T09:05:17.725Z,20.09
2023-04-12T09:06:17.669Z,20.00
2023-04-12T09:07:17.644Z,19.99
2023-04-12T09:08:17.830Z,20.12
2023-04-12T09:09:17.702Z,20.09
2023-04-12T09:10:18.410Z,20.17
2023-04-12T09:11:18.145Z,20.06
2023-04-12T09:12:17.655Z,20.07
2023-04-12T09:13:18.347Z,20.00
2023-04-12T09:14:17.581Z,19.92
2023-04-12T09:15:17.657Z,19.91
2023-04-12T09:16:17.541Z,19.92
2023-04-12T09:17:17.536Z,20.07
2023-04-12T09:18:17.695Z,20.02
2023-04-12T09:19:17.508Z,20.17
2023-04-12T09:20:17.654Z,20.09
2023-04-12T09:21:17.578Z,20.02
2023-04-12T09:22:17.473Z,20.14
2023-04-12T09:23:17.435Z,20.73
2023-04-12T09:24:17.457Z,20.59
2023-04-12T09:25:17.461Z,20.33
2023-04-12T09:26:17.406Z,20.17
2023-04-12T09:27:17.488Z,20.35
2023-04-12T09:28:17.415Z,20.17
2023-04-12T09:29:17.393Z,20.35
2023-04-12T09:30:17.410Z,20.27
2023-04-12T09:31:17.461Z,20.38
2023-04-12T09:32:17.367Z,20.32
2023-04-12T09:33:17.389Z,20.34
2023-04-12T09:34:17.308Z,20.27
2023-04-12T09:35:17.322Z,20.31
2023-04-12T09:36:17.352Z,20.29
2023-04-12T09:37:17.285Z,20.42
2023-04-12T09:38:17.261Z,20.34
2023-04-12T09:39:17.226Z,20.16
2023-04-12T09:40:17.274Z,20.32
2023-04-12T09:41:20.243Z,20.79
2023-04-12T09:42:32.478Z,20.58
2023-04-12T09:43:18.231Z,20.42
2023-04-12T09:44:17.248Z,20.44
2023-04-12T09:45:17.223Z,20.34
2023-04-12T09:46:17.237Z,20.29
2023-04-12T09:47:17.166Z,20.29
2023-04-12T09:48:17.175Z,20.29
2023-04-12T09:49:17.073Z,20.26
2023-04-12T09:50:17.139Z,20.20
2023-04-12T09:51:17.242Z,20.15
2023-04-12T09:52:17.068Z,20.16
2023-04-12T09:53:17.109Z,20.08
2023-04-12T09:54:17.168Z,20.05
2023-04-12T09:55:17.367Z,20.04
2023-04-12T09:56:17.246Z,20.00
2023-04-12T09:57:17.275Z,19.99
2023-04-12T09:58:17.457Z,19.96
2023-04-12T09:59:17.318Z,19.92
2023-04-12T10:00:17.908Z,19.84
2023-04-12T10:01:17.914Z,19.86
2023-04-12T10:02:17.485Z,19.74
2023-04-12T10:03:17.473Z,19.73
2023-04-12T10:04:17.549Z,19.77
2023-04-12T10:05:17.773Z,19.69
2023-04-12T10:06:17.347Z,19.63
2023-04-12T10:07:17.344Z,19.63
2023-04-12T10:08:17.299Z,19.56
2023-04-12T10:09:17.299Z,19.60
2023-04-12T10:10:17.464Z,19.58
2023-04-12T10:11:17.257Z,19.63
2023-04-12T10:12:17.293Z,19.60
2023-04-12T10:13:17.369Z,19.56
2023-04-12T10:14:17.809Z,19.45
2023-04-12T10:15:18.237Z,19.50
2023-04-12T10:16:17.563Z,19.44
2023-04-12T10:17:17.590Z,19.47
2023-04-12T10:18:17.636Z,19.43
2023-04-12T10:19:17.673Z,19.39
2023-04-12T10:20:17.769Z,19.34
2023-04-12T10:21:17.738Z,19.32
2023-04-12T10:22:17.795Z,19.35
2023-04-12T10:23:17.827Z,19.34
2023-04-12T10:24:17.874Z,19.37
2023-04-12T10:25:17.965Z,19.29
2023-04-12T10:26:17.989Z,19.29
2023-04-12T10:27:18.032Z,19.27
2023-04-12T10:28:19.069Z,19.17
2023-04-12T10:29:18.141Z,19.19
2023-04-12T10:30:18.187Z,19.19
2023-04-12T10:31:18.244Z,19.14
2023-04-12T10:32:18.279Z,19.14
2023-04-12T10:33:18.355Z,19.09
2023-04-12T10:34:18.351Z,19.17
2023-04-12T10:35:18.451Z,19.06
2023-04-12T10:36:18.508Z,19.09
2023-04-12T10:37:18.536Z,19.19
2023-04-12T10:38:18.590Z,19.16
2023-04-12T10:39:18.556Z,19.06
2023-04-12T10:40:19.601Z,19.08
2023-04-12T10:41:18.578Z,19.04
2023-04-12T10:42:18.508Z,19.04
2023-04-12T10:43:18.533Z,19.09
2023-04-12T10:44:18.495Z,19.09
2023-04-12T10:45:18.559Z,19.03
2023-04-12T10:46:18.489Z,19.00
2023-04-12T10:47:19.556Z,19.03
2023-04-12T10:48:18.615Z,19.03
2023-04-12T10:49:18.597Z,19.02
2023-04-12T10:50:18.659Z,19.02
2023-04-12T10:51:20.061Z,18.97
2023-04-12T10:52:18.714Z,18.97
2023-04-12T10:53:18.680Z,18.95
2023-04-12T10:54:18.657Z,18.97
2023-04-12T10:55:18.656Z,18.98
2023-04-12T10:56:18.708Z,18.92
2023-04-12T10:57:18.647Z,18.93
2023-04-12T10:58:19.062Z,18.95
2023-04-12T10:59:18.613Z,18.86
2023-04-12T11:00:18.598Z,18.93
2023-04-12T11:01:18.687Z,18.93
2023-04-12T11:02:18.678Z,18.91
2023-04-12T11:03:18.898Z,18.92
2023-04-12T11:04:18.731Z,18.88
2023-04-12T11:05:18.773Z,18.92
2023-04-12T11:06:27.158Z,18.95
2023-04-12T11:07:19.703Z,18.90
2023-04-12T11:08:18.692Z,18.95
2023-04-12T11:09:18.619Z,18.90
2023-04-12T11:10:19.500Z,18.91
2023-04-12T11:11:18.699Z,18.82
2023-04-12T11:12:18.573Z,18.88
2023-04-12T11:13:18.587Z,18.92
2023-04-12T11:14:18.629Z,18.92
2023-04-12T11:15:18.575Z,18.95
2023-04-12T11:16:18.596Z,18.82
2023-04-12T11:17:18.659Z,18.88
2023-04-12T11:18:18.640Z,18.87
2023-04-12T11:19:18.646Z,18.86
2023-04-12T11:20:18.509Z,18.92
2023-04-12T11:21:18.938Z,18.90
2023-04-12T11:22:18.453Z,18.88
2023-04-12T11:23:18.419Z,18.88
2023-04-12T11:24:18.400Z,18.90
2023-04-12T11:25:18.466Z,18.86
2023-04-12T11:26:18.379Z,18.88
2023-04-12T11:27:18.402Z,18.87
2023-04-12T11:28:28.736Z,18.88
2023-04-12T11:29:19.511Z,18.92
2023-04-12T11:30:18.380Z,18.92
2023-04-12T11:31:18.508Z,18.92
2023-04-12T11:32:18.673Z,18.82
2023-04-12T11:33:18.439Z,18.87
2023-04-12T11:34:18.366Z,18.86
2023-04-12T11:35:18.923Z,18.88
2023-04-12T11:36:19.351Z,18.88
2023-04-12T11:37:18.312Z,18.93
2023-04-12T11:38:18.317Z,18.90
2023-04-12T11:39:18.255Z,18.90
2023-04-12T11:40:18.237Z,18.87
2023-04-12T11:41:18.241Z,18.86
2023-04-12T11:42:18.225Z,18.90
2023-04-12T11:43:18.236Z,18.95
2023-04-12T11:44:18.193Z,18.80
2023-04-12T11:45:18.688Z,18.87
2023-04-12T11:46:18.310Z,18.92
2023-04-12T11:47:18.197Z,18.88
2023-04-12T11:48:18.217Z,19.54
2023-04-12T11:49:18.132Z,19.66
2023-04-12T11:50:18.134Z,19.53
2023-04-12T11:51:18.844Z,19.64
2023-04-12T11:52:18.122Z,19.64
2023-04-12T11:53:18.087Z,19.53
2023-04-12T11:54:18.058Z,19.52
2023-04-12T11:55:18.051Z,19.56
2023-04-12T11:56:18.019Z,19.47
2023-04-12T11:57:18.067Z,19.46
2023-04-12T11:58:17.996Z,19.42
2023-04-12T11:59:18.944Z,19.46
2023-04-12T12:00:17.970Z,19.36
2023-04-12T12:01:17.964Z,19.38
2023-04-12T12:02:23.292Z,19.42
2023-04-12T12:03:19.096Z,19.36
2023-04-12T12:04:18.142Z,19.40
2023-04-12T12:05:18.055Z,19.35
2023-04-12T12:06:18.092Z,19.30
2023-04-12T12:07:18.181Z,19.32
2023-04-12T12:08:17.900Z,19.36
2023-04-12T12:09:17.843Z,19.33
2023-04-12T12:10:32.474Z,19.36
2023-04-12T12:11:18.801Z,19.38
2023-04-12T12:12:17.985Z,19.40
2023-04-12T12:13:17.771Z,19.32
2023-04-12T12:14:17.771Z,19.30
2023-04-12T12:15:17.748Z,19.37
2023-04-12T12:16:17.825Z,19.34
2023-04-12T12:17:17.721Z,19.34
2023-04-12T12:18:17.931Z,19.34
2023-04-12T12:19:17.954Z,19.31
2023-04-12T12:20:17.713Z,19.37
2023-04-12T12:21:17.744Z,19.32
2023-04-12T12:22:17.748Z,19.35
2023-04-12T12:23:17.593Z,19.35
2023-04-12T12:24:17.562Z,19.33
2023-04-12T12:25:17.550Z,19.34
2023-04-12T12:26:19.262Z,19.27
2023-04-12T12:27:18.601Z,19.31
2023-04-12T12:28:20.597Z,19.31
2023-04-12T12:29:17.493Z,19.33
2023-04-12T12:30:17.492Z,19.37
2023-04-12T12:31:17.490Z,19.34
2023-04-12T12:32:17.464Z,19.37
2023-04-12T12:33:17.395Z,19.36
2023-04-12T12:34:17.366Z,19.36
2023-04-12T12:35:17.375Z,19.44
2023-04-12T12:36:17.366Z,19.47
2023-04-12T12:37:17.301Z,19.39
2023-04-12T12:38:17.295Z,19.39
2023-04-12T12:39:17.276Z,19.37
2023-04-12T12:40:17.234Z,19.40
2023-04-12T12:41:17.205Z,19.39
2023-04-12T12:42:17.195Z,19.36
2023-04-12T12:43:17.164Z,19.37
2023-04-12T12:44:17.142Z,19.42
2023-04-12T12:45:17.129Z,19.42
2023-04-12T12:46:17.163Z,19.37
2023-04-12T12:47:17.132Z,19.42
2023-04-12T12:48:17.128Z,19.39
2023-04-12T12:49:17.056Z,19.39
2023-04-12T12:50:17.015Z,19.33
2023-04-12T12:51:16.984Z,19.44
2023-04-12T12:52:17.892Z,19.36